createdAt,value
2018-02-05T00:00:27.091Z,1.25
2018-02-05T00:01:25.950Z,1.31
2018-02-05T00:02:25.911Z,1.25
2018-02-05T00:03:25.898Z,1.31
2018-02-05T00:04:25.802Z,1.31
2018-02-05T00:05:25.914Z,1.31
2018-02-05T00:06:25.920Z,1.31
2018-02-05T00:07:25.888Z,1.37
2018-02-05T00:08:25.964Z,1.31
2018-02-05T00:09:26.028Z,1.25
2018-02-05T00:10:25.980Z,1.31
2018-02-05T00:11:25.888Z,1.31
2018-02-05T00:12:26.069Z,1.31
2018-02-05T00:13:25.927Z,1.31
2018-02-05T00:14:25.894Z,1.31
2018-02-05T00:15:26.087Z,1.31
2018-02-05T00:16:25.857Z,1.37
2018-02-05T00:17:25.788Z,1.31
2018-02-05T00:18:26.034Z,1.37
2018-02-05T00:19:26.057Z,1.37
2018-02-05T00:20:26.008Z,1.37
2018-02-05T00:21:25.787Z,1.44
2018-02-05T00:22:25.802Z,1.44
2018-02-05T00:23:25.898Z,1.44
2018-02-05T00:24:25.905Z,1.44
2018-02-05T00:25:25.939Z,1.5
2018-02-05T00:26:26.200Z,1.5
2018-02-05T00:27:26.010Z,1.5
2018-02-05T00:28:25.914Z,1.5
2018-02-05T00:29:25.792Z,1.56
2018-02-05T00:30:25.835Z,1.56
2018-02-05T00:31:25.801Z,1.56
2018-02-05T00:32:25.962Z,1.56
2018-02-05T00:33:25.788Z,1.62
2018-02-05T00:34:26.028Z,1.56
2018-02-05T00:35:25.928Z,1.62
2018-02-05T00:36:25.963Z,1.62
2018-02-05T00:37:25.872Z,1.56
2018-02-05T00:38:25.825Z,1.56
2018-02-05T00:39:25.973Z,1.56
2018-02-05T00:40:25.879Z,1.56
2018-02-05T00:41:25.921Z,1.56
2018-02-05T00:42:25.744Z,1.62
2018-02-05T00:43:26.001Z,1.56
2018-02-05T00:44:25.888Z,1.62
2018-02-05T00:45:26.005Z,1.62
2018-02-05T00:46:25.855Z,1.62
2018-02-05T00:47:25.935Z,1.56
2018-02-05T00:48:25.721Z,1.62
2018-02-05T00:49:25.924Z,1.56
2018-02-05T00:50:25.874Z,1.62
2018-02-05T00:51:25.875Z,1.56
2018-02-05T00:52:25.665Z,1.62
2018-02-05T00:53:25.621Z,1.62
2018-02-05T00:54:25.788Z,1.62
2018-02-05T00:55:25.667Z,1.62
2018-02-05T00:56:25.756Z,1.69
2018-02-05T00:57:25.786Z,1.62
2018-02-05T00:58:25.780Z,1.69
2018-02-05T00:59:25.831Z,1.69
2018-02-05T01:00:25.822Z,1.62
2018-02-05T01:01:25.711Z,1.62
2018-02-05T01:02:25.696Z,1.62
2018-02-05T01:03:25.666Z,1.69
2018-02-05T01:04:25.677Z,1.62
2018-02-05T01:05:25.784Z,1.69
2018-02-05T01:06:25.777Z,1.69
2018-02-05T01:07:25.771Z,1.69
2018-02-05T01:08:25.751Z,1.69
2018-02-05T01:09:25.781Z,1.75
2018-02-05T01:10:25.646Z,1.69
2018-02-05T01:11:25.793Z,1.75
2018-02-05T01:12:25.691Z,1.69
2018-02-05T01:13:25.645Z,1.75
2018-02-05T01:14:25.793Z,1.75
2018-02-05T01:15:25.737Z,1.75
2018-02-05T01:16:25.712Z,1.75
2018-02-05T01:17:25.762Z,1.75
2018-02-05T01:18:25.845Z,1.75
2018-02-05T01:19:25.788Z,1.69
2018-02-05T01:20:25.820Z,1.69
2018-02-05T01:21:25.622Z,1.75
2018-02-05T01:22:25.596Z,1.69
2018-02-05T01:23:25.748Z,1.69
2018-02-05T01:24:25.579Z,1.75
2018-02-05T01:25:25.694Z,1.69
2018-02-05T01:26:25.565Z,1.69
2018-02-05T01:27:25.640Z,1.69
2018-02-05T01:28:25.763Z,1.69
2018-02-05T01:29:25.616Z,1.69
2018-02-05T01:30:25.649Z,1.69
2018-02-05T01:31:25.682Z,1.69
2018-02-05T01:32:25.688Z,1.69
2018-02-05T01:35:25.724Z,1.62
2018-02-05T01:36:25.638Z,1.62
2018-02-05T01:37:25.656Z,1.62
2018-02-05T01:38:25.703Z,1.62
2018-02-05T01:39:25.706Z,1.62
2018-02-05T01:40:25.686Z,1.56
2018-02-05T01:41:25.680Z,1.56
2018-02-05T01:42:25.680Z,1.5
2018-02-05T01:43:25.661Z,1.56
2018-02-05T01:44:25.681Z,1.5
2018-02-05T01:45:25.493Z,1.56
2018-02-05T01:46:25.629Z,1.5
2018-02-05T01:47:25.677Z,1.5
2018-02-05T01:48:25.766Z,1.44
2018-02-05T01:49:25.678Z,1.5
2018-02-05T01:50:25.534Z,1.44
2018-02-05T01:51:25.738Z,1.44
2018-02-05T01:52:25.655Z,1.44
2018-02-05T01:53:25.542Z,1.44
2018-02-05T01:54:25.652Z,1.37
2018-02-05T01:55:25.831Z,1.37
2018-02-05T01:56:25.610Z,1.37
2018-02-05T01:57:25.741Z,1.37
2018-02-05T01:58:25.696Z,1.31
2018-02-05T01:59:25.733Z,1.31
2018-02-05T02:00:25.589Z,1.31
2018-02-05T02:01:25.694Z,1.31
2018-02-05T02:02:25.703Z,1.31
2018-02-05T02:03:25.748Z,1.31
2018-02-05T02:04:25.716Z,1.31
2018-02-05T02:05:25.830Z,1.25
2018-02-05T02:06:25.777Z,1.25
2018-02-05T02:07:25.788Z,1.19
2018-02-05T02:08:25.840Z,1.19
2018-02-05T02:09:25.783Z,1.19
2018-02-05T02:10:25.801Z,1.19
2018-02-05T02:11:25.752Z,1.19
2018-02-05T02:12:25.626Z,1.19
2018-02-05T02:13:25.592Z,1.19
2018-02-05T02:14:25.840Z,1.12
2018-02-05T02:15:25.755Z,1.12
2018-02-05T02:16:25.587Z,1.19
2018-02-05T02:17:25.711Z,1.12
2018-02-05T02:18:25.729Z,1.19
2018-02-05T02:19:26.028Z,1.12
2018-02-05T02:20:25.894Z,1.12
2018-02-05T02:23:25.717Z,1.12
2018-02-05T02:24:25.820Z,1.06
2018-02-05T02:25:25.787Z,1.06
2018-02-05T02:26:25.549Z,1.06
2018-02-05T02:27:25.524Z,1.06
2018-02-05T02:28:25.532Z,1.06
2018-02-05T02:29:25.693Z,1.06
2018-02-05T02:30:25.735Z,1.06
2018-02-05T02:31:25.671Z,1
2018-02-05T02:32:25.518Z,1
2018-02-05T02:33:26.520Z,1
2018-02-05T02:34:26.430Z,1
2018-02-05T02:35:26.486Z,1
2018-02-05T02:36:26.439Z,1
2018-02-05T02:37:26.528Z,1
2018-02-05T02:38:26.479Z,1
2018-02-05T02:39:26.549Z,0.94
2018-02-05T02:40:26.591Z,0.94
2018-02-05T02:41:26.554Z,0.94
2018-02-05T02:42:26.624Z,0.94
2018-02-05T02:43:26.340Z,0.88
2018-02-05T02:44:26.508Z,0.88
2018-02-05T02:45:26.511Z,0.94
2018-02-05T02:46:26.526Z,0.94
2018-02-05T02:47:26.539Z,0.94
2018-02-05T02:48:26.388Z,0.94
2018-02-05T02:50:26.561Z,0.94
2018-02-05T02:51:26.464Z,0.94
2018-02-05T02:52:26.549Z,0.88
2018-02-05T02:53:26.452Z,0.88
2018-02-05T02:54:26.514Z,0.88
2018-02-05T02:55:26.502Z,0.88
2018-02-05T02:56:26.591Z,0.88
2018-02-05T02:57:26.557Z,0.81
2018-02-05T02:58:26.439Z,0.88
2018-02-05T02:59:26.429Z,0.88
2018-02-05T03:00:26.397Z,0.81
2018-02-05T03:01:26.485Z,0.81
2018-02-05T03:02:26.505Z,0.81
2018-02-05T03:03:26.340Z,0.81
2018-02-05T03:04:26.428Z,0.81
2018-02-05T03:05:26.417Z,0.81
2018-02-05T03:06:26.561Z,0.81
2018-02-05T03:07:26.505Z,0.81
2018-02-05T03:08:26.560Z,0.81
2018-02-05T03:09:26.440Z,0.81
2018-02-05T03:10:26.530Z,0.81
2018-02-05T03:11:26.526Z,0.81
2018-02-05T03:12:26.500Z,0.81
2018-02-05T03:13:26.461Z,0.81
2018-02-05T03:14:26.407Z,0.81
2018-02-05T03:15:26.574Z,0.75
2018-02-05T03:16:26.481Z,0.81
2018-02-05T03:17:26.488Z,0.81
2018-02-05T03:18:26.598Z,0.81
2018-02-05T03:19:26.502Z,0.75
2018-02-05T03:20:26.521Z,0.75
2018-02-05T03:21:26.528Z,0.75
2018-02-05T03:22:26.499Z,0.75
2018-02-05T03:23:26.457Z,0.75
2018-02-05T03:24:26.363Z,0.75
2018-02-05T03:25:26.486Z,0.69
2018-02-05T03:26:26.436Z,0.75
2018-02-05T03:27:26.551Z,0.75
2018-02-05T03:28:26.491Z,0.69
2018-02-05T03:29:26.482Z,0.75
2018-02-05T03:30:26.403Z,0.69
2018-02-05T03:31:26.564Z,0.75
2018-02-05T03:32:26.520Z,0.69
2018-02-05T03:33:26.566Z,0.75
2018-02-05T03:34:26.619Z,0.69
2018-02-05T03:35:26.602Z,0.69
2018-02-05T03:36:26.550Z,0.69
2018-02-05T03:37:26.626Z,0.69
2018-02-05T03:38:26.572Z,0.69
2018-02-05T03:39:26.518Z,0.69
2018-02-05T03:40:26.501Z,0.62
2018-02-05T03:41:26.562Z,0.69
2018-02-05T03:42:26.601Z,0.62
2018-02-05T03:43:26.638Z,0.69
2018-02-05T03:44:26.526Z,0.62
2018-02-05T03:45:26.622Z,0.69
2018-02-05T03:46:26.620Z,0.69
2018-02-05T03:47:26.453Z,0.69
2018-02-05T03:48:26.633Z,0.62
2018-02-05T03:49:26.592Z,0.62
2018-02-05T03:50:26.426Z,0.69
2018-02-05T03:51:26.622Z,0.62
2018-02-05T03:52:26.454Z,0.62
2018-02-05T03:53:26.415Z,0.62
2018-02-05T03:54:26.703Z,0.62
2018-02-05T03:55:26.459Z,0.62
2018-02-05T03:56:26.347Z,0.69
2018-02-05T03:57:26.615Z,0.62
2018-02-05T03:58:26.610Z,0.62
2018-02-05T03:59:26.638Z,0.62
2018-02-05T04:00:26.660Z,0.62
2018-02-05T04:01:26.459Z,0.62
2018-02-05T04:02:26.452Z,0.69
2018-02-05T04:03:26.551Z,0.62
2018-02-05T04:04:27.103Z,0.62
2018-02-05T04:05:26.814Z,0.69
2018-02-05T04:06:26.459Z,0.62
2018-02-05T04:07:26.428Z,0.69
2018-02-05T04:08:26.464Z,0.69
2018-02-05T04:09:26.615Z,0.62
2018-02-05T04:10:26.530Z,0.69
2018-02-05T04:11:26.635Z,0.62
2018-02-05T04:12:26.595Z,0.62
2018-02-05T04:13:26.507Z,0.69
2018-02-05T04:14:26.619Z,0.62
2018-02-05T04:15:26.616Z,0.69
2018-02-05T04:16:26.386Z,0.69
2018-02-05T04:17:26.708Z,0.69
2018-02-05T04:18:26.456Z,0.69
2018-02-05T04:19:26.503Z,0.62
2018-02-05T04:20:26.408Z,0.62
2018-02-05T04:21:26.553Z,0.69
2018-02-05T04:22:26.535Z,0.69
2018-02-05T04:23:26.516Z,0.69
2018-02-05T04:24:26.638Z,0.69
2018-02-05T04:25:26.478Z,0.75
2018-02-05T04:26:26.538Z,0.69
2018-02-05T04:27:26.608Z,0.69
2018-02-05T04:28:26.502Z,0.69
2018-02-05T04:29:26.472Z,0.69
2018-02-05T04:30:26.638Z,0.69
2018-02-05T04:31:26.504Z,0.69
2018-02-05T04:32:26.985Z,0.69
2018-02-05T04:33:26.501Z,0.69
2018-02-05T04:34:26.514Z,0.75
2018-02-05T04:35:26.520Z,0.69
2018-02-05T04:36:26.508Z,0.69
2018-02-05T04:37:26.513Z,0.69
2018-02-05T04:38:26.363Z,0.69
2018-02-05T04:39:26.504Z,0.69
2018-02-05T04:40:26.542Z,0.69
2018-02-05T04:41:26.501Z,0.69
2018-02-05T04:42:26.348Z,0.69
2018-02-05T04:43:26.469Z,0.69
2018-02-05T04:44:26.440Z,0.69
2018-02-05T04:45:26.473Z,0.69
2018-02-05T04:46:26.469Z,0.69
2018-02-05T04:47:26.363Z,0.69
2018-02-05T04:48:26.470Z,0.69
2018-02-05T04:49:26.563Z,0.69
2018-02-05T04:50:26.621Z,0.69
2018-02-05T04:51:26.561Z,0.69
2018-02-05T04:52:26.579Z,0.69
2018-02-05T04:53:26.518Z,0.69
2018-02-05T04:54:26.421Z,0.69
2018-02-05T04:55:26.447Z,0.69
2018-02-05T04:56:26.364Z,0.69
2018-02-05T04:57:26.516Z,0.69
2018-02-05T04:58:26.542Z,0.62
2018-02-05T04:59:26.727Z,0.69
2018-02-05T05:00:26.767Z,0.69
2018-02-05T05:01:26.797Z,0.69
2018-02-05T05:02:26.597Z,0.69
2018-02-05T05:03:26.609Z,0.62
2018-02-05T05:04:26.683Z,0.69
2018-02-05T05:05:25.779Z,0.62
2018-02-05T05:06:25.649Z,0.62
2018-02-05T05:07:25.689Z,0.69
2018-02-05T05:08:25.513Z,0.62
2018-02-05T05:09:25.724Z,0.62
2018-02-05T05:10:25.744Z,0.62
2018-02-05T05:11:25.828Z,0.56
2018-02-05T05:12:25.719Z,0.62
2018-02-05T05:13:25.500Z,0.56
2018-02-05T05:14:25.693Z,0.62
2018-02-05T05:15:25.804Z,0.62
2018-02-05T05:16:25.747Z,0.62
2018-02-05T05:17:25.668Z,0.56
2018-02-05T05:18:25.778Z,0.56
2018-02-05T05:19:25.649Z,0.62
2018-02-05T05:20:25.734Z,0.62
2018-02-05T05:21:25.699Z,0.56
2018-02-05T05:22:25.673Z,0.62
2018-02-05T05:23:25.723Z,0.56
2018-02-05T05:24:25.558Z,0.62
2018-02-05T05:25:25.744Z,0.56
2018-02-05T05:26:25.885Z,0.62
2018-02-05T05:27:25.785Z,0.62
2018-02-05T05:28:25.613Z,0.56
2018-02-05T05:29:25.604Z,0.56
2018-02-05T05:30:25.634Z,0.56
2018-02-05T05:31:25.515Z,0.56
2018-02-05T05:32:25.636Z,0.56
2018-02-05T05:33:25.735Z,0.56
2018-02-05T05:34:25.752Z,0.56
2018-02-05T05:35:25.841Z,0.56
2018-02-05T05:36:25.723Z,0.56
2018-02-05T05:37:25.967Z,0.56
2018-02-05T05:38:25.978Z,0.56
2018-02-05T05:39:25.791Z,0.56
2018-02-05T05:40:25.965Z,0.56
2018-02-05T05:41:25.924Z,0.56
2018-02-05T05:42:25.888Z,0.5
2018-02-05T05:43:25.917Z,0.56
2018-02-05T05:44:25.743Z,0.56
2018-02-05T05:45:25.825Z,0.5
2018-02-05T05:46:25.873Z,0.5
2018-02-05T05:47:25.962Z,0.5
2018-02-05T05:48:26.110Z,0.5
2018-02-05T05:49:25.920Z,0.56
2018-02-05T05:50:25.738Z,0.5
2018-02-05T05:51:25.888Z,0.5
2018-02-05T05:52:25.891Z,0.5
2018-02-05T05:53:25.906Z,0.5
2018-02-05T05:54:25.898Z,0.44
2018-02-05T05:55:25.680Z,0.44
2018-02-05T05:56:25.707Z,0.44
2018-02-05T05:57:25.821Z,0.44
2018-02-05T05:58:25.724Z,0.5
2018-02-05T05:59:25.676Z,0.44
2018-02-05T06:00:25.795Z,0.5
2018-02-05T06:01:25.988Z,0.44
2018-02-05T06:02:26.179Z,0.5
2018-02-05T06:03:26.035Z,0.44
2018-02-05T06:04:25.888Z,0.44
2018-02-05T06:05:25.842Z,0.37
2018-02-05T06:06:25.736Z,0.44
2018-02-05T06:07:25.553Z,0.44
2018-02-05T06:08:25.789Z,0.44
2018-02-05T06:09:25.822Z,0.37
2018-02-05T06:10:25.709Z,0.37
2018-02-05T06:11:25.889Z,0.44
2018-02-05T06:12:25.882Z,0.44
2018-02-05T06:13:25.742Z,0.37
2018-02-05T06:14:25.797Z,0.44
2018-02-05T06:15:25.733Z,0.37
2018-02-05T06:16:25.537Z,0.37
2018-02-05T06:17:25.908Z,0.37
2018-02-05T06:18:25.656Z,0.31
2018-02-05T06:19:25.577Z,0.37
2018-02-05T06:20:25.571Z,0.31
2018-02-05T06:21:25.744Z,0.31
2018-02-05T06:22:25.817Z,0.31
2018-02-05T06:23:25.668Z,0.31
2018-02-05T06:24:25.677Z,0.25
2018-02-05T06:25:26.838Z,0.25
2018-02-05T06:26:27.051Z,0.25
2018-02-05T06:27:27.260Z,0.25
2018-02-05T06:28:26.931Z,0.25
2018-02-05T06:29:26.848Z,0.25
2018-02-05T06:30:25.630Z,0.19
2018-02-05T06:31:26.961Z,0.25
2018-02-05T06:32:25.610Z,0.19
2018-02-05T06:33:26.896Z,0.19
2018-02-05T06:34:25.722Z,0.19
2018-02-05T06:35:26.688Z,0.19
2018-02-05T06:36:26.796Z,0.19
2018-02-05T06:37:26.934Z,0.19
2018-02-05T06:38:25.729Z,0.19
2018-02-05T06:39:26.728Z,0.19
2018-02-05T06:40:26.820Z,0.19
2018-02-05T06:41:26.939Z,0.19
2018-02-05T06:42:26.947Z,0.19
2018-02-05T06:43:27.021Z,0.19
2018-02-05T06:44:26.804Z,0.19
2018-02-05T06:45:26.916Z,0.19
2018-02-05T06:46:25.786Z,0.19
2018-02-05T06:50:25.740Z,0.25
2018-02-05T06:51:25.712Z,0.19
2018-02-05T06:52:26.002Z,0.31
2018-02-05T06:53:25.811Z,0.25
2018-02-05T06:54:25.850Z,0.25
2018-02-05T06:55:25.800Z,0.25
2018-02-05T06:56:25.891Z,0.25
2018-02-05T06:57:25.890Z,0.25
2018-02-05T06:58:26.002Z,0.25
2018-02-05T06:59:25.854Z,0.19
2018-02-05T07:00:25.858Z,0.25
2018-02-05T07:01:25.696Z,0.25
2018-02-05T07:02:25.829Z,0.25
2018-02-05T07:03:25.669Z,0.25
2018-02-05T07:04:25.892Z,0.19
2018-02-05T07:05:25.901Z,0.25
2018-02-05T07:06:25.758Z,0.19
2018-02-05T07:07:25.867Z,0.25
2018-02-05T07:08:25.807Z,0.19
2018-02-05T07:09:25.855Z,0.25
2018-02-05T07:10:25.822Z,0.25
2018-02-05T07:11:25.706Z,0.25
2018-02-05T07:12:25.623Z,0.25
2018-02-05T07:13:25.628Z,0.31
2018-02-05T07:14:25.746Z,0.25
2018-02-05T07:15:25.877Z,0.25
2018-02-05T07:16:25.831Z,0.25
2018-02-05T07:17:25.622Z,0.25
2018-02-05T07:18:25.699Z,0.25
2018-02-05T07:19:25.803Z,0.25
2018-02-05T07:20:25.818Z,0.31
2018-02-05T07:21:25.751Z,0.25
2018-02-05T07:22:25.779Z,0.31
2018-02-05T07:23:25.726Z,0.31
2018-02-05T07:24:25.771Z,0.31
2018-02-05T07:25:25.741Z,0.31
2018-02-05T07:26:25.766Z,0.37
2018-02-05T07:27:25.864Z,0.31
2018-02-05T07:28:25.763Z,0.37
2018-02-05T07:29:25.826Z,0.31
2018-02-05T07:30:25.644Z,0.37
2018-02-05T07:31:25.861Z,0.37
2018-02-05T07:32:25.777Z,0.37
2018-02-05T07:33:25.814Z,0.37
2018-02-05T07:34:25.758Z,0.37
2018-02-05T07:35:25.815Z,0.37
2018-02-05T07:36:25.792Z,0.37
2018-02-05T07:37:25.939Z,0.44
2018-02-05T07:38:25.912Z,0.44
2018-02-05T07:39:25.714Z,0.44
2018-02-05T07:40:25.736Z,0.44
2018-02-05T07:41:25.704Z,0.44
2018-02-05T07:42:25.897Z,0.44
2018-02-05T07:43:25.889Z,0.44
2018-02-05T07:44:25.894Z,0.44
2018-02-05T07:45:25.818Z,0.44
2018-02-05T07:46:25.865Z,0.44
2018-02-05T07:47:27.139Z,0.44
2018-02-05T07:48:28.601Z,0.5
2018-02-05T07:49:27.831Z,0.5
2018-02-05T07:50:25.893Z,0.44
2018-02-05T07:51:26.061Z,0.5
2018-02-05T07:52:25.785Z,0.5
2018-02-05T07:53:25.803Z,0.5
2018-02-05T07:54:25.736Z,0.5
2018-02-05T07:55:25.968Z,0.5
2018-02-05T07:56:25.717Z,0.5
2018-02-05T07:57:25.735Z,0.5
2018-02-05T07:58:25.880Z,0.44
2018-02-05T07:59:25.911Z,0.5
2018-02-05T08:00:25.837Z,0.44
2018-02-05T08:01:26.044Z,0.5
2018-02-05T08:02:25.781Z,0.5
2018-02-05T08:03:25.824Z,0.5
2018-02-05T08:04:25.720Z,0.5
2018-02-05T08:05:25.925Z,0.5
2018-02-05T08:06:25.902Z,0.56
2018-02-05T08:07:25.711Z,0.5
2018-02-05T08:08:26.024Z,0.56
2018-02-05T08:09:26.055Z,0.56
2018-02-05T08:10:27.497Z,0.56
2018-02-05T08:11:26.015Z,0.56
2018-02-05T08:12:26.021Z,0.56
2018-02-05T08:13:26.114Z,0.62
2018-02-05T08:14:28.069Z,0.62
2018-02-05T08:15:27.087Z,0.56
2018-02-05T08:16:25.993Z,0.62
2018-02-05T08:17:26.121Z,0.56
2018-02-05T08:18:27.336Z,0.62
2018-02-05T08:19:26.051Z,0.69
2018-02-05T08:20:26.025Z,0.69
2018-02-05T08:21:27.264Z,0.69
2018-02-05T08:22:26.007Z,0.69
2018-02-05T08:23:26.054Z,0.69
2018-02-05T08:24:26.161Z,0.69
2018-02-05T08:25:26.195Z,0.69
2018-02-05T08:26:26.127Z,0.62
2018-02-05T08:27:26.135Z,0.69
2018-02-05T08:28:26.139Z,0.62
2018-02-05T08:29:25.960Z,0.62
2018-02-05T08:30:26.063Z,0.69
2018-02-05T08:31:26.063Z,0.62
2018-02-05T08:32:26.002Z,0.62
2018-02-05T08:33:26.077Z,0.62
2018-02-05T08:34:26.139Z,0.62
2018-02-05T08:35:26.049Z,0.69
2018-02-05T08:36:26.102Z,0.62
2018-02-05T08:37:25.996Z,0.69
2018-02-05T08:38:26.183Z,0.69
2018-02-05T08:39:26.075Z,0.69
2018-02-05T08:40:25.979Z,0.62
2018-02-05T08:41:25.966Z,0.69
2018-02-05T08:42:25.892Z,0.69
2018-02-05T08:43:25.957Z,0.69
2018-02-05T08:44:25.916Z,0.75
2018-02-05T08:45:26.165Z,0.75
2018-02-05T08:46:25.967Z,0.75
2018-02-05T08:47:26.023Z,0.69
2018-02-05T08:48:26.060Z,0.75
2018-02-05T08:49:25.780Z,0.75
2018-02-05T08:50:26.106Z,0.75
2018-02-05T08:51:26.142Z,0.75
2018-02-05T08:52:25.898Z,0.81
2018-02-05T08:53:26.081Z,0.81
2018-02-05T08:54:26.038Z,0.81
2018-02-05T08:55:26.022Z,0.81
2018-02-05T08:56:26.235Z,0.88
2018-02-05T08:57:25.985Z,0.81
2018-02-05T08:58:25.949Z,0.88
2018-02-05T08:59:26.022Z,0.88
2018-02-05T09:00:26.117Z,0.94
2018-02-05T09:01:26.120Z,0.94
2018-02-05T09:02:26.143Z,1
2018-02-05T09:03:26.029Z,1
2018-02-05T09:04:26.135Z,1
2018-02-05T09:05:25.954Z,1
2018-02-05T09:06:26.010Z,1
2018-02-05T09:07:26.266Z,1.06
2018-02-05T09:08:26.025Z,1.06
2018-02-05T09:09:26.489Z,1.06
2018-02-05T09:10:26.459Z,1.06
2018-02-05T09:11:26.376Z,1.06
2018-02-05T09:12:26.296Z,1.12
2018-02-05T09:13:26.335Z,1.12
2018-02-05T09:14:26.651Z,1.12
2018-02-05T09:15:26.484Z,1.19
2018-02-05T09:16:26.441Z,1.19
2018-02-05T09:17:26.536Z,1.25
2018-02-05T09:18:26.528Z,1.25
2018-02-05T09:19:26.410Z,1.31
2018-02-05T09:20:26.458Z,1.31
2018-02-05T09:21:26.356Z,1.37
2018-02-05T09:22:26.476Z,1.37
2018-02-05T09:23:26.519Z,1.37
2018-02-05T09:24:26.672Z,1.44
2018-02-05T09:25:26.289Z,1.44
2018-02-05T09:26:26.320Z,1.44
2018-02-05T09:27:26.569Z,1.44
2018-02-05T09:28:26.557Z,1.5
2018-02-05T09:29:26.538Z,1.56
2018-02-05T09:30:26.394Z,1.62
2018-02-05T09:31:26.981Z,1.56
2018-02-05T09:32:26.371Z,1.62
2018-02-05T09:33:26.505Z,1.62
2018-02-05T09:34:26.380Z,1.62
2018-02-05T09:35:26.439Z,1.62
2018-02-05T09:36:26.433Z,1.69
2018-02-05T09:37:26.333Z,1.69
2018-02-05T09:38:26.320Z,1.69
2018-02-05T09:39:26.279Z,1.75
2018-02-05T09:40:26.365Z,1.75
2018-02-05T09:41:26.431Z,1.75
2018-02-05T09:42:26.355Z,1.75
2018-02-05T09:43:26.340Z,1.81
2018-02-05T09:44:26.270Z,1.81
2018-02-05T09:45:26.211Z,1.87
2018-02-05T09:46:26.275Z,1.87
2018-02-05T09:47:26.356Z,1.94
2018-02-05T09:48:26.344Z,1.87
2018-02-05T09:49:26.316Z,1.94
2018-02-05T09:50:26.243Z,1.87
2018-02-05T09:51:26.330Z,1.94
2018-02-05T09:52:26.280Z,1.87
2018-02-05T09:53:26.307Z,1.94
2018-02-05T09:54:26.292Z,1.94
2018-02-05T09:55:26.218Z,1.94
2018-02-05T09:56:26.191Z,1.94
2018-02-05T09:57:26.381Z,2
2018-02-05T10:00:26.285Z,2.12
2018-02-05T10:01:26.315Z,2.12
2018-02-05T10:02:26.392Z,2.12
2018-02-05T10:03:27.921Z,2.19
2018-02-05T10:04:27.156Z,2.19
2018-02-05T10:05:26.140Z,2.12
2018-02-05T10:06:27.432Z,2.12
2018-02-05T10:07:27.217Z,2.12
2018-02-05T10:08:26.146Z,2.12
2018-02-05T10:09:27.507Z,2.19
2018-02-05T10:10:27.518Z,2.19
2018-02-05T10:11:27.749Z,2.19
2018-02-05T10:12:27.655Z,2.25
2018-02-05T10:13:27.694Z,2.25
2018-02-05T10:14:27.598Z,2.25
2018-02-05T10:15:27.792Z,2.31
2018-02-05T10:16:27.889Z,2.31
2018-02-05T10:17:27.752Z,2.37
2018-02-05T10:18:27.606Z,2.37
2018-02-05T10:19:27.601Z,2.44
2018-02-05T10:20:27.790Z,2.44
2018-02-05T10:21:27.466Z,2.44
2018-02-05T10:22:27.520Z,2.5
2018-02-05T10:23:27.915Z,2.5
2018-02-05T10:24:27.554Z,2.56
2018-02-05T10:25:27.644Z,2.56
2018-02-05T10:26:27.647Z,2.62
2018-02-05T10:27:27.687Z,2.56
2018-02-05T10:28:27.881Z,2.69
2018-02-05T10:29:27.615Z,2.69
2018-02-05T10:30:27.758Z,2.69
2018-02-05T10:31:27.646Z,2.75
2018-02-05T10:32:27.713Z,2.75
2018-02-05T10:33:27.724Z,2.75
2018-02-05T10:34:27.432Z,2.75
2018-02-05T10:35:27.632Z,2.75
2018-02-05T10:36:28.196Z,2.81
2018-02-05T10:37:27.826Z,2.75
2018-02-05T10:38:27.742Z,2.75
2018-02-05T10:39:27.981Z,2.81
2018-02-05T10:40:27.685Z,2.81
2018-02-05T10:41:25.918Z,2.87
2018-02-05T10:42:28.191Z,2.87
2018-02-05T10:43:25.685Z,2.94
2018-02-05T10:44:25.882Z,2.94
2018-02-05T10:45:25.653Z,3
2018-02-05T10:46:25.725Z,3
2018-02-05T10:47:25.676Z,3
2018-02-05T10:48:25.454Z,3
2018-02-05T10:49:25.714Z,3.12
2018-02-05T10:50:25.628Z,3.12
2018-02-05T10:51:25.551Z,3.06
2018-02-05T10:52:25.746Z,3.12
2018-02-05T10:53:25.616Z,3.06
2018-02-05T10:54:25.624Z,3.12
2018-02-05T10:55:25.631Z,3.06
2018-02-05T10:56:25.679Z,3.06
2018-02-05T10:57:25.496Z,3.12
2018-02-05T10:58:25.569Z,3.12
2018-02-05T10:59:25.562Z,3.12
2018-02-05T11:00:25.723Z,3.19
2018-02-05T11:01:25.564Z,3.12
2018-02-05T11:02:25.711Z,3.25
2018-02-05T11:03:26.934Z,3.19
2018-02-05T11:04:25.577Z,3.19
2018-02-05T11:05:25.779Z,3.25
2018-02-05T11:06:25.737Z,3.25
2018-02-05T11:07:25.571Z,3.25
2018-02-05T11:08:25.774Z,3.25
2018-02-05T11:09:25.623Z,3.31
2018-02-05T11:10:25.757Z,3.31
2018-02-05T11:11:25.661Z,3.37
2018-02-05T11:12:25.483Z,3.37
2018-02-05T11:13:25.561Z,3.44
2018-02-05T11:14:25.625Z,3.44
2018-02-05T11:15:25.589Z,3.5
2018-02-05T11:16:25.581Z,3.5
2018-02-05T11:17:25.627Z,3.44
2018-02-05T11:18:25.599Z,3.5
2018-02-05T11:19:25.599Z,3.5
2018-02-05T11:20:25.564Z,3.56
2018-02-05T11:21:25.650Z,3.56
2018-02-05T11:22:25.696Z,3.62
2018-02-05T11:23:25.838Z,3.56
2018-02-05T11:24:25.786Z,3.56
2018-02-05T11:25:25.734Z,3.56
2018-02-05T11:26:25.854Z,3.62
2018-02-05T11:27:25.634Z,3.69
2018-02-05T11:28:25.724Z,3.75
2018-02-05T11:29:25.793Z,3.75
2018-02-05T11:30:25.732Z,3.81
2018-02-05T11:31:25.539Z,3.75
2018-02-05T11:32:25.843Z,3.69
2018-02-05T11:33:25.673Z,3.75
2018-02-05T11:34:25.746Z,3.81
2018-02-05T11:35:25.567Z,3.87
2018-02-05T11:36:25.696Z,3.87
2018-02-05T11:37:25.961Z,3.94
2018-02-05T11:38:25.552Z,3.94
2018-02-05T11:39:26.101Z,3.87
2018-02-05T11:40:25.631Z,3.87
2018-02-05T11:41:25.564Z,3.94
2018-02-05T11:42:25.643Z,3.87
2018-02-05T11:43:25.520Z,3.87
2018-02-05T11:44:25.803Z,3.94
2018-02-05T11:45:25.566Z,3.94
2018-02-05T11:46:25.789Z,4
2018-02-05T11:47:26.869Z,4.06
2018-02-05T11:48:26.600Z,4.06
2018-02-05T11:49:26.667Z,4.12
2018-02-05T11:50:26.489Z,4.12
2018-02-05T11:51:26.570Z,4.12
2018-02-05T11:52:26.630Z,4.19
2018-02-05T11:53:26.750Z,4.19
2018-02-05T11:54:26.666Z,4.06
2018-02-05T11:55:26.592Z,4.12
2018-02-05T11:56:26.784Z,4.06
2018-02-05T11:57:27.016Z,4.06
2018-02-05T11:58:26.943Z,4.06
2018-02-05T11:59:26.586Z,4.12
2018-02-05T12:00:27.118Z,4.12
2018-02-05T12:01:27.522Z,4.12
2018-02-05T12:02:26.585Z,4.12
2018-02-05T12:03:27.062Z,4.25
2018-02-05T12:04:26.421Z,4.31
2018-02-05T12:05:26.729Z,4.19
2018-02-05T12:06:26.770Z,4.19
2018-02-05T12:07:26.719Z,4.19
2018-02-05T12:08:26.580Z,4.31
2018-02-05T12:09:27.088Z,4.25
2018-02-05T12:10:26.583Z,4.31
2018-02-05T12:11:27.094Z,4.31
2018-02-05T12:12:26.642Z,4.31
2018-02-05T12:13:26.466Z,4.37
2018-02-05T12:14:26.319Z,4.44
2018-02-05T12:15:26.295Z,4.5
2018-02-05T12:16:26.536Z,4.5
2018-02-05T12:17:26.326Z,4.56
2018-02-05T12:18:26.518Z,4.56
2018-02-05T12:19:26.351Z,4.56
2018-02-05T12:20:26.321Z,4.56
2018-02-05T12:21:26.717Z,4.56
2018-02-05T12:22:26.638Z,4.62
2018-02-05T12:23:26.504Z,4.69
2018-02-05T12:24:26.726Z,4.44
2018-02-05T12:25:26.576Z,4.44
2018-02-05T12:26:26.725Z,4.44
2018-02-05T12:27:26.973Z,4.44
2018-02-05T12:28:26.962Z,4.5
2018-02-05T12:29:26.941Z,4.5
2018-02-05T12:30:27.097Z,4.56
2018-02-05T12:31:26.380Z,4.62
2018-02-05T12:32:26.415Z,4.62
2018-02-05T12:33:26.479Z,4.56
2018-02-05T12:34:26.349Z,4.56
2018-02-05T12:35:26.418Z,4.56
2018-02-05T12:36:26.878Z,4.62
2018-02-05T12:37:26.509Z,4.69
2018-02-05T12:38:26.698Z,4.69
2018-02-05T12:39:26.888Z,4.62
2018-02-05T12:40:26.929Z,4.69
2018-02-05T12:41:27.173Z,4.69
2018-02-05T12:42:26.918Z,4.75
2018-02-05T12:43:26.858Z,4.75
2018-02-05T12:44:27.085Z,4.81
2018-02-05T12:45:27.180Z,4.81
2018-02-05T12:46:25.913Z,4.87
2018-02-05T12:47:26.447Z,4.87
2018-02-05T12:48:27.398Z,4.87
2018-02-05T12:49:27.289Z,4.87
2018-02-05T12:50:27.364Z,5
2018-02-05T12:51:28.119Z,4.94
2018-02-05T12:52:27.443Z,5
2018-02-05T12:53:27.221Z,4.94
2018-02-05T12:54:26.557Z,4.94
2018-02-05T12:55:26.668Z,4.94
2018-02-05T12:56:26.581Z,4.94
2018-02-05T12:57:26.488Z,5
2018-02-05T12:58:27.370Z,5.06
2018-02-05T12:59:27.103Z,5.12
2018-02-05T13:00:27.116Z,5.19
2018-02-05T13:01:26.718Z,5.06
2018-02-05T13:02:27.278Z,5.12
2018-02-05T13:03:27.283Z,5.12
2018-02-05T13:04:27.413Z,5.06
2018-02-05T13:05:27.172Z,5.12
2018-02-05T13:06:26.419Z,5.12
2018-02-05T13:07:27.702Z,5.06
2018-02-05T13:08:26.817Z,5.06
2018-02-05T13:09:26.709Z,5.06
2018-02-05T13:10:26.582Z,5.06
2018-02-05T13:11:27.215Z,5.06
2018-02-05T13:12:25.965Z,5
2018-02-05T13:13:26.749Z,4.94
2018-02-05T13:14:26.648Z,4.94
2018-02-05T13:15:27.232Z,4.81
2018-02-05T13:16:26.821Z,4.81
2018-02-05T13:17:26.775Z,4.87
2018-02-05T13:18:26.986Z,4.81
2018-02-05T13:19:27.088Z,4.94
2018-02-05T13:20:26.988Z,4.87
2018-02-05T13:21:26.222Z,4.87
2018-02-05T13:22:26.779Z,4.87
2018-02-05T13:23:26.694Z,4.81
2018-02-05T13:24:26.709Z,4.75
2018-02-05T13:25:26.932Z,4.87
2018-02-05T13:26:27.032Z,4.75
2018-02-05T13:27:27.269Z,4.75
2018-02-05T13:28:27.122Z,4.81
2018-02-05T13:29:27.126Z,4.81
2018-02-05T13:30:27.270Z,4.81
2018-02-05T13:31:27.400Z,4.81
2018-02-05T13:32:27.350Z,4.87